createdAt,value
2019-03-08T00:01:40.821Z,13.68
2019-03-08T00:04:10.624Z,12.28
2019-03-08T00:06:40.222Z,11.48
2019-03-08T00:09:09.673Z,11.45
2019-03-08T00:11:39.543Z,11.68
2019-03-08T00:14:09.076Z,9.60
2019-03-08T00:16:38.513Z,10.38
2019-03-08T00:19:10.087Z,10.93
2019-03-08T00:21:39.301Z,9.83
2019-03-08T00:24:10.915Z,8.50
2019-03-08T00:26:40.435Z,11.55
2019-03-08T00:29:10.052Z,9.45
2019-03-08T00:31:39.695Z,13.22
2019-03-08T00:34:09.217Z,12.45
2019-03-08T00:36:38.736Z,11.00
2019-03-08T00:39:08.286Z,11.05
2019-03-08T00:41:37.771Z,7.42
2019-03-08T00:44:07.388Z,8.75
2019-03-08T00:46:36.866Z,10.20
2019-03-08T00:49:08.012Z,8.10
2019-03-08T00:51:37.725Z,6.90
2019-03-08T00:54:07.160Z,7.78
2019-03-08T00:56:36.647Z,8.80
2019-03-08T00:59:06.394Z,9.70
2019-03-08T01:01:35.928Z,12.13
2019-03-08T01:04:05.441Z,7.83
2019-03-08T01:06:34.904Z,9.93
2019-03-08T01:09:05.591Z,5.83
2019-03-08T01:11:35.204Z,6.65
2019-03-08T01:14:04.845Z,3.83
2019-03-08T01:16:34.390Z,10.55
2019-03-08T01:19:03.929Z,8.20
2019-03-08T01:21:33.441Z,8.15
2019-03-08T01:24:03.054Z,5.40
2019-03-08T01:26:32.663Z,6.30
2019-03-08T01:29:02.120Z,7.20
2019-03-08T01:31:32.010Z,6.40
2019-03-08T01:34:01.500Z,7.50
2019-03-08T01:36:30.955Z,6.42
2019-03-08T01:39:00.808Z,5.83
2019-03-08T01:41:30.664Z,5.92
2019-03-08T01:44:00.132Z,5.03
2019-03-08T01:46:29.658Z,6.78
2019-03-08T01:48:59.138Z,8.63
2019-03-08T01:51:28.764Z,4.50
2019-03-08T01:53:58.394Z,5.28
2019-03-08T01:56:27.987Z,6.28
2019-03-08T01:58:57.417Z,8.00
2019-03-08T02:01:26.988Z,9.75
2019-03-08T02:03:56.503Z,6.83
2019-03-08T02:06:26.312Z,5.25
2019-03-08T02:08:55.892Z,6.90
2019-03-08T02:11:25.354Z,4.22
2019-03-08T02:13:54.797Z,8.20
2019-03-08T02:16:24.336Z,5.90
2019-03-08T02:18:53.792Z,7.05
2019-03-08T02:21:23.245Z,3.20
2019-03-08T02:23:52.697Z,7.05
2019-03-08T02:26:22.204Z,3.02
2019-03-08T02:28:52.102Z,4.15
2019-03-08T02:31:21.549Z,5.00
2019-03-08T02:33:51.349Z,5.00
2019-03-08T02:36:20.851Z,6.08
2019-03-08T02:38:50.364Z,2.80
2019-03-08T02:41:19.902Z,6.33
2019-03-08T02:43:49.408Z,7.33
2019-03-08T02:46:18.978Z,4.47
2019-03-08T02:48:48.505Z,3.65
2019-03-08T02:51:19.422Z,3.30
2019-03-08T02:53:49.001Z,5.37
2019-03-08T02:56:18.641Z,4.22
2019-03-08T02:58:48.111Z,3.87
2019-03-08T03:01:17.641Z,4.17
2019-03-08T03:03:47.226Z,6.00
2019-03-08T03:06:16.706Z,6.30
2019-03-08T03:08:46.205Z,3.27
2019-03-08T03:11:15.726Z,5.15
2019-03-08T03:13:45.198Z,5.65
2019-03-08T03:16:14.650Z,3.55
2019-03-08T03:18:44.170Z,4.47
2019-03-08T03:21:13.600Z,3.60
2019-03-08T03:23:43.043Z,3.05
2019-03-08T03:26:12.602Z,3.15
2019-03-08T03:28:42.223Z,3.35
2019-03-08T03:31:11.813Z,3.00
2019-03-08T03:33:41.298Z,5.15
2019-03-08T03:36:10.756Z,3.15
2019-03-08T03:38:40.230Z,2.00
2019-03-08T03:41:09.937Z,3.30
2019-03-08T03:43:39.410Z,3.42
2019-03-08T03:46:08.858Z,6.67
2019-03-08T03:48:38.331Z,5.03
2019-03-08T03:51:07.876Z,4.95
2019-03-08T03:53:37.311Z,6.17
2019-03-08T03:56:06.975Z,5.47
2019-03-08T03:58:36.479Z,5.53
2019-03-08T04:01:22.437Z,4.00
2019-03-08T04:03:51.916Z,3.77
2019-03-08T04:06:21.598Z,3.33
2019-03-08T04:08:51.095Z,4.92
2019-03-08T04:11:20.655Z,3.70
2019-03-08T04:13:50.111Z,5.97
2019-03-08T04:16:19.699Z,3.25
2019-03-08T04:18:49.166Z,3.83
2019-03-08T04:21:18.677Z,3.37
2019-03-08T04:23:48.180Z,3.50
2019-03-08T04:26:17.673Z,4.42
2019-03-08T04:28:47.170Z,5.03
2019-03-08T04:31:16.695Z,4.12
2019-03-08T04:33:46.249Z,4.33
2019-03-08T04:36:15.714Z,3.60
2019-03-08T04:38:45.226Z,6.65
2019-03-08T04:41:14.711Z,5.55
2019-03-08T04:43:44.189Z,5.30
2019-03-08T04:46:13.732Z,6.25
2019-03-08T04:48:43.394Z,3.95
2019-03-08T04:51:12.899Z,4.08
2019-03-08T04:53:42.441Z,3.42
2019-03-08T04:56:11.901Z,3.10
2019-03-08T04:58:41.359Z,6.03
2019-03-08T05:01:11.014Z,2.98
2019-03-08T05:03:40.486Z,4.15
2019-03-08T05:06:09.959Z,2.85
2019-03-08T05:08:39.479Z,5.45
2019-03-08T05:11:08.946Z,3.58
2019-03-08T05:13:38.415Z,3.22
2019-03-08T05:16:08.326Z,4.25
2019-03-08T05:18:37.904Z,3.47
2019-03-08T05:21:07.361Z,3.62
2019-03-08T05:23:36.898Z,4.55
2019-03-08T05:26:06.508Z,3.50
2019-03-08T05:28:35.969Z,4.03
2019-03-08T05:31:05.602Z,5.87
2019-03-08T05:33:35.118Z,6.22
2019-03-08T05:36:04.577Z,3.08
2019-03-08T05:38:34.033Z,6.10
2019-03-08T05:41:03.640Z,7.17
2019-03-08T05:43:33.305Z,5.10
2019-03-08T05:46:02.798Z,3.90
2019-03-08T05:48:33.788Z,3.52
2019-03-08T05:51:03.252Z,4.28
2019-03-08T05:53:32.750Z,3.45
2019-03-08T05:56:02.253Z,4.53
2019-03-08T05:58:31.742Z,3.58
2019-03-08T06:01:01.239Z,4.28
2019-03-08T06:03:30.737Z,4.62
2019-03-08T06:06:00.179Z,3.47
2019-03-08T06:08:29.768Z,6.33
2019-03-08T06:11:00.240Z,4.58
2019-03-08T06:13:29.697Z,5.62
2019-03-08T06:15:59.235Z,3.65
2019-03-08T06:18:28.741Z,3.67
2019-03-08T06:20:58.198Z,3.02
2019-03-08T06:23:27.737Z,2.67
2019-03-08T06:25:57.679Z,3.35
2019-03-08T06:28:27.131Z,3.98
2019-03-08T06:30:56.688Z,5.47
2019-03-08T06:33:26.160Z,3.70
2019-03-08T06:35:55.646Z,5.47
2019-03-08T06:38:25.163Z,2.92
2019-03-08T06:40:54.969Z,4.55
2019-03-08T06:43:24.457Z,2.17
2019-03-08T06:45:53.916Z,3.55
2019-03-08T06:48:23.377Z,3.98
2019-03-08T06:50:52.965Z,4.30
2019-03-08T06:53:22.438Z,4.60
2019-03-08T06:55:51.901Z,8.63
2019-03-08T06:58:42.221Z,6.83
2019-03-08T07:01:14.912Z,11.53
2019-03-08T07:03:44.383Z,10.18
2019-03-08T07:06:13.959Z,7.70
2019-03-08T07:08:43.426Z,8.98
2019-03-08T07:11:12.919Z,10.43
2019-03-08T07:13:42.407Z,15.35
2019-03-08T07:16:14.906Z,12.68
2019-03-08T07:18:44.889Z,9.13
2019-03-08T07:21:31.904Z,12.10
2019-03-08T07:24:32.581Z,14.80
2019-03-08T07:27:15.496Z,12.13
2019-03-08T07:30:15.770Z,18.45
2019-03-08T07:32:55.973Z,8.53
2019-03-08T07:35:53.050Z,8.15
2019-03-08T07:38:38.766Z,6.75
2019-03-08T07:41:17.408Z,12.00
2019-03-08T07:44:14.594Z,12.53
2019-03-08T07:46:59.423Z,7.47
2019-03-08T07:49:56.445Z,11.78
2019-03-08T07:52:37.223Z,8.53
2019-03-08T07:55:24.169Z,10.10
2019-03-08T07:58:15.404Z,11.65
2019-03-08T08:01:06.759Z,15.18
2019-03-08T08:03:58.088Z,12.88
2019-03-08T08:06:51.210Z,15.08
2019-03-08T08:09:39.642Z,8.90
2019-03-08T08:12:31.003Z,13.08
2019-03-08T08:15:19.416Z,11.55
2019-03-08T08:18:03.494Z,11.95
2019-03-08T08:20:48.813Z,10.08
2019-03-08T08:23:49.524Z,11.18
2019-03-08T08:26:42.346Z,8.13
2019-03-08T08:29:35.064Z,7.70
2019-03-08T08:32:19.313Z,7.78
2019-03-08T08:35:11.231Z,5.50
2019-03-08T08:38:05.347Z,7.15
2019-03-08T08:40:52.325Z,6.03
2019-03-08T08:43:38.588Z,13.15
2019-03-08T08:46:29.741Z,6.67
2019-03-08T08:49:23.952Z,4.28
2019-03-08T08:52:12.295Z,5.37
2019-03-08T08:55:01.624Z,6.50
2019-03-08T08:57:48.853Z,6.17
2019-03-08T09:00:37.890Z,7.42
2019-03-08T09:03:25.376Z,4.47
2019-03-08T09:06:20.942Z,7.33
2019-03-08T09:09:07.901Z,7.45
2019-03-08T09:11:56.296Z,3.72
2019-03-08T09:14:36.545Z,6.42
2019-03-08T09:17:11.689Z,3.65
2019-03-08T09:20:03.125Z,3.47
2019-03-08T09:22:51.501Z,5.87
2019-03-08T09:25:35.023Z,4.53
2019-03-08T09:28:16.710Z,3.15
2019-03-08T09:31:08.230Z,5.60
2019-03-08T09:33:53.440Z,5.75
2019-03-08T09:36:40.866Z,3.62
2019-03-08T09:39:35.340Z,5.42
2019-03-08T09:42:26.805Z,5.28
2019-03-08T09:45:14.223Z,3.25
2019-03-08T09:48:02.766Z,4.50
2019-03-08T09:50:39.251Z,4.25
2019-03-08T09:53:36.713Z,4.12
2019-03-08T09:56:22.185Z,3.50
2019-03-08T09:59:27.502Z,3.80
2019-03-08T10:02:19.418Z,4.10
2019-03-08T10:05:17.103Z,3.00
2019-03-08T10:08:11.942Z,4.12
2019-03-08T10:11:06.158Z,4.65
2019-03-08T10:13:50.973Z,3.20
2019-03-08T10:16:27.544Z,3.52
2019-03-08T10:19:31.353Z,3.27
2019-03-08T10:22:08.966Z,3.35
2019-03-08T10:25:09.605Z,3.77
2019-03-08T10:28:03.795Z,6.95
2019-03-08T10:30:45.814Z,5.40
2019-03-08T10:33:26.452Z,4.17
2019-03-08T10:36:20.528Z,4.72
2019-03-08T10:39:11.848Z,3.20
2019-03-08T10:42:00.247Z,3.83
2019-03-08T10:44:44.381Z,5.28
2019-03-08T10:47:38.508Z,5.28
2019-03-08T10:50:18.761Z,4.95
2019-03-08T10:53:00.574Z,5.78
2019-03-08T10:55:43.291Z,4.12
2019-03-08T10:58:43.625Z,6.15
2019-03-08T11:01:41.072Z,3.42
2019-03-08T11:04:34.378Z,2.77
2019-03-08T11:07:21.023Z,2.83
2019-03-08T11:10:10.452Z,3.30
2019-03-08T11:12:53.984Z,4.03
2019-03-08T11:15:42.336Z,2.92
2019-03-08T11:18:21.316Z,4.72
2019-03-08T11:21:05.724Z,4.17
2019-03-08T11:23:51.427Z,3.58
2019-03-08T11:26:47.685Z,3.70
2019-03-08T11:29:38.878Z,4.47
2019-03-08T11:32:22.778Z,3.33
2019-03-08T11:35:04.769Z,3.55
2019-03-08T11:37:55.960Z,7.20
2019-03-08T11:40:44.155Z,5.22
2019-03-08T11:43:47.712Z,4.15
2019-03-08T11:46:31.169Z,3.40
2019-03-08T11:49:28.851Z,4.75
2019-03-08T11:52:22.460Z,3.33
2019-03-08T11:55:09.760Z,4.78
2019-03-08T11:57:56.867Z,3.08
2019-03-08T12:01:04.047Z,2.62
2019-03-08T12:03:55.447Z,5.20
2019-03-08T12:06:35.630Z,4.33
2019-03-08T12:09:19.805Z,3.02
2019-03-08T12:12:16.991Z,4.12
2019-03-08T12:14:57.042Z,3.30
2019-03-08T12:17:51.039Z,3.25
2019-03-08T12:20:39.585Z,3.27
2019-03-08T12:23:18.649Z,6.40
2019-03-08T12:26:00.893Z,2.90
2019-03-08T12:28:48.051Z,4.37
2019-03-08T12:31:39.181Z,3.65
2019-03-08T12:34:30.829Z,4.40
2019-03-08T12:37:17.747Z,3.33
2019-03-08T12:40:09.462Z,2.98
2019-03-08T12:42:57.843Z,2.47
2019-03-08T12:45:49.736Z,3.58
2019-03-08T12:48:53.331Z,2.98
2019-03-08T12:51:30.067Z,3.60
2019-03-08T12:54:22.035Z,4.45
2019-03-08T12:57:12.954Z,3.02
2019-03-08T13:00:03.981Z,2.90
2019-03-08T13:02:58.134Z,2.33
2019-03-08T13:05:46.744Z,4.33
2019-03-08T13:08:44.237Z,2.85
2019-03-08T13:11:13.740Z,3.90
2019-03-08T13:13:43.257Z,2.83
2019-03-08T13:16:12.921Z,4.62
2019-03-08T13:18:42.439Z,3.52
2019-03-08T13:21:11.905Z,1.77
2019-03-08T13:23:41.355Z,3.00
2019-03-08T13:26:10.891Z,2.25
2019-03-08T13:28:40.385Z,2.17
2019-03-08T13:31:09.936Z,2.67
2019-03-08T13:33:39.457Z,3.33
2019-03-08T13:36:09.623Z,3.05
2019-03-08T13:38:39.084Z,2.65
2019-03-08T13:41:08.646Z,3.37
2019-03-08T13:43:38.435Z,1.98
2019-03-08T13:46:08.010Z,4.25
2019-03-08T13:48:37.563Z,5.95
2019-03-08T13:51:07.180Z,3.95
2019-03-08T13:53:36.637Z,6.50
2019-03-08T13:56:06.370Z,3.92
2019-03-08T13:58:38.112Z,6.45
2019-03-08T14:01:07.880Z,3.37
2019-03-08T14:03:37.830Z,6.87
2019-03-08T14:06:08.443Z,4.55
2019-03-08T14:08:38.015Z,4.70
2019-03-08T14:11:07.696Z,4.60
2019-03-08T14:13:37.391Z,3.87
2019-03-08T14:16:06.882Z,4.72
2019-03-08T14:18:36.430Z,5.35
2019-03-08T14:21:06.210Z,5.75
2019-03-08T14:23:36.124Z,19.42
2019-03-08T14:26:06.224Z,33.42
2019-03-08T14:28:35.830Z,24.27
2019-03-08T14:31:14.524Z,15.25
2019-03-08T14:33:46.343Z,23.35
2019-03-08T14:36:16.002Z,18.60
2019-03-08T14:38:45.541Z,18.48
2019-03-08T14:41:24.536Z,20.72
2019-03-08T14:44:10.980Z,12.68
2019-03-08T14:46:56.492Z,7.45
2019-03-08T14:49:25.286Z,11.43
2019-03-08T14:51:54.775Z,16.23
2019-03-08T14:54:24.686Z,15.30
2019-03-08T14:56:54.244Z,17.77
2019-03-08T14:59:23.832Z,11.70
2019-03-08T15:01:53.362Z,9.28
2019-03-08T15:04:22.871Z,9.70
2019-03-08T15:06:52.775Z,15.18
2019-03-08T15:09:22.339Z,10.63
2019-03-08T15:11:52.176Z,6.42
2019-03-08T15:14:21.885Z,12.30
2019-03-08T15:16:51.466Z,5.33
2019-03-08T15:19:21.247Z,13.70
2019-03-08T15:21:50.726Z,8.55
2019-03-08T15:24:20.219Z,5.45
2019-03-08T15:26:49.947Z,7.03
2019-03-08T15:29:19.460Z,5.85
2019-03-08T15:31:49.034Z,6.65
2019-03-08T15:34:21.315Z,7.28
2019-03-08T15:36:49.933Z,5.12
2019-03-08T15:39:20.315Z,9.93
2019-03-08T15:41:50.124Z,8.50
2019-03-08T15:44:19.611Z,5.35
2019-03-08T15:46:49.459Z,10.43
2019-03-08T15:49:19.043Z,15.93
2019-03-08T15:51:48.563Z,12.35
2019-03-08T15:54:18.073Z,13.03
2019-03-08T15:56:47.654Z,13.85
2019-03-08T15:59:17.163Z,10.18
2019-03-08T16:01:46.640Z,13.18
2019-03-08T16:04:18.958Z,8.78
2019-03-08T16:06:48.402Z,16.90
2019-03-08T16:09:18.050Z,12.15
2019-03-08T16:11:47.626Z,11.63
2019-03-08T16:14:18.910Z,6.85
2019-03-08T16:16:49.151Z,10.13
2019-03-08T16:19:20.939Z,5.92
2019-03-08T16:21:50.839Z,7.37
2019-03-08T16:24:21.554Z,6.05
2019-03-08T16:26:51.088Z,8.33
2019-03-08T16:29:20.510Z,8.08
2019-03-08T16:32:07.497Z,16.00
2019-03-08T16:34:37.917Z,13.65
2019-03-08T16:37:24.756Z,9.75
2019-03-08T16:40:10.429Z,7.30
2019-03-08T16:42:50.665Z,7.08
2019-03-08T16:45:38.779Z,9.70
2019-03-08T16:48:14.664Z,4.40
2019-03-08T16:50:56.193Z,8.68
2019-03-08T16:53:42.089Z,12.13
2019-03-08T16:56:30.488Z,6.00
2019-03-08T16:59:15.389Z,8.58
2019-03-08T17:01:55.735Z,11.08
2019-03-08T17:04:47.104Z,9.45
2019-03-08T17:07:38.389Z,7.78
2019-03-08T17:10:29.979Z,5.70
2019-03-08T17:13:37.354Z,6.70
2019-03-08T17:16:37.901Z,3.30
2019-03-08T17:19:22.178Z,4.35
2019-03-08T17:22:07.302Z,4.65
2019-03-08T17:25:10.768Z,9.98
2019-03-08T17:28:09.998Z,6.53
2019-03-08T17:31:01.885Z,7.12
2019-03-08T17:33:51.609Z,10.23
2019-03-08T17:36:42.672Z,3.10
2019-03-08T17:39:28.338Z,6.72
2019-03-08T17:42:06.535Z,3.00
2019-03-08T17:44:58.154Z,4.85
2019-03-08T17:47:45.179Z,2.85
2019-03-08T17:50:47.272Z,2.52
2019-03-08T17:53:36.861Z,2.45
2019-03-08T17:56:15.229Z,3.70
2019-03-08T17:59:02.641Z,3.10
2019-03-08T18:01:58.819Z,4.30
2019-03-08T18:05:04.640Z,3.35
2019-03-08T18:07:51.823Z,2.58
2019-03-08T18:10:38.385Z,3.33
2019-03-08T18:13:26.261Z,1.92
2019-03-08T18:16:02.670Z,3.10
2019-03-08T18:18:51.131Z,2.30
2019-03-08T18:21:38.158Z,3.95
2019-03-08T18:24:36.327Z,2.87
2019-03-08T18:27:27.812Z,4.15
2019-03-08T18:30:07.286Z,2.60
2019-03-08T18:32:59.384Z,3.67
2019-03-08T18:35:54.449Z,2.40
2019-03-08T18:38:41.514Z,2.65
2019-03-08T18:42:17.693Z,2.70
2019-03-08T18:45:39.369Z,3.20
2019-03-08T18:48:28.621Z,1.55
2019-03-08T18:51:15.958Z,2.95
2019-03-08T18:54:06.660Z,2.12
2019-03-08T18:57:17.676Z,3.33
2019-03-08T19:00:24.824Z,3.12
2019-03-08T19:03:13.710Z,1.80
2019-03-08T19:06:17.258Z,2.70
2019-03-08T19:09:03.990Z,2.67
2019-03-08T19:12:04.274Z,3.83
2019-03-08T19:15:01.594Z,1.67
2019-03-08T19:17:57.271Z,1.75
2019-03-08T19:20:45.146Z,1.57
2019-03-08T19:23:34.663Z,2.27
2019-03-08T19:26:35.197Z,1.50
2019-03-08T19:29:12.685Z,1.17
2019-03-08T19:32:07.390Z,2.00
2019-03-08T19:35:29.851Z,1.52
2019-03-08T19:38:12.910Z,1.27
2019-03-08T19:40:57.195Z,4.15
2019-03-08T19:44:06.697Z,2.92
2019-03-08T19:46:55.236Z,1.40
2019-03-08T19:49:46.663Z,1.98
2019-03-08T19:52:28.839Z,1.25
2019-03-08T19:55:23.366Z,1.17
2019-03-08T19:58:21.112Z,2.85
2019-03-08T20:01:03.717Z,1.40
2019-03-08T20:03:50.546Z,0.98
2019-03-08T20:06:42.708Z,2.83
2019-03-08T20:09:30.757Z,0.80
2019-03-08T20:12:34.533Z,2.83
2019-03-08T20:15:27.923Z,1.15
2019-03-08T20:18:25.929Z,1.62
2019-03-08T20:21:07.864Z,0.60
2019-03-08T20:23:58.593Z,2.47
2019-03-08T20:26:47.832Z,1.02
2019-03-08T20:30:20.208Z,1.70
2019-03-08T20:32:58.618Z,1.12
2019-03-08T20:35:37.602Z,2.30
2019-03-08T20:38:19.139Z,2.25
2019-03-08T20:41:16.135Z,1.40
2019-03-08T20:43:56.924Z,1.82
2019-03-08T20:46:56.388Z,0.95
2019-03-08T20:50:05.858Z,2.33
2019-03-08T20:52:37.232Z,1.62
2019-03-08T20:55:07.496Z,1.07
2019-03-08T20:57:37.164Z,0.80
2019-03-08T21:01:06.945Z,2.35
2019-03-08T21:03:15.615Z,0.70
2019-03-08T21:05:54.858Z,1.85
2019-03-08T21:09:19.713Z,2.98
2019-03-08T21:13:02.426Z,2.30
2019-03-08T21:15:53.496Z,2.08
2019-03-08T21:18:49.019Z,1.27
2019-03-08T21:21:18.831Z,1.77
2019-03-08T21:23:51.686Z,1.37
2019-03-08T21:26:21.409Z,1.52
2019-03-08T21:28:53.265Z,3.98
2019-03-08T21:31:22.849Z,4.30
2019-03-08T21:34:29.059Z,3.90
2019-03-08T21:36:58.646Z,2.45
2019-03-08T21:39:28.381Z,4.83
2019-03-08T21:42:31.924Z,2.05
2019-03-08T21:45:01.726Z,1.67
2019-03-08T21:47:31.326Z,1.07
2019-03-08T21:50:00.925Z,2.33
2019-03-08T21:53:30.261Z,2.20
2019-03-08T21:55:55.657Z,1.65
2019-03-08T21:58:25.264Z,1.85
2019-03-08T22:01:05.473Z,2.00
2019-03-08T22:03:37.509Z,2.95
2019-03-08T22:06:09.658Z,0.80
2019-03-08T22:08:45.953Z,1.40
2019-03-08T22:11:49.855Z,1.05
2019-03-08T22:14:30.983Z,2.62
2019-03-08T22:17:23.141Z,1.20
2019-03-08T22:23:59.831Z,1.80
2019-03-08T22:26:38.661Z,1.17
2019-03-08T22:29:19.034Z,3.25
2019-03-08T22:31:51.825Z,2.27
2019-03-08T22:34:23.850Z,2.92
2019-03-08T22:36:53.387Z,1.45
2019-03-08T22:39:22.886Z,4.28
2019-03-08T22:41:52.474Z,2.15
2019-03-08T22:44:21.970Z,3.25
2019-03-08T22:46:51.531Z,5.70
2019-03-08T22:49:21.075Z,2.27
2019-03-08T22:51:50.659Z,3.58
2019-03-08T22:54:20.171Z,6.62
2019-03-08T22:56:49.789Z,3.75
2019-03-08T22:59:19.288Z,6.22
2019-03-08T23:01:54.066Z,2.95
2019-03-08T23:04:23.568Z,2.70
2019-03-08T23:06:53.109Z,4.17
2019-03-08T23:09:22.804Z,6.42
2019-03-08T23:11:52.336Z,5.78
2019-03-08T23:14:21.844Z,3.27
2019-03-08T23:16:51.362Z,2.98
2019-03-08T23:19:20.932Z,5.70
2019-03-08T23:21:50.496Z,3.65
2019-03-08T23:24:20.009Z,5.03
2019-03-08T23:27:07.122Z,5.17
2019-03-08T23:29:41.616Z,3.52
2019-03-08T23:32:24.186Z,8.30
2019-03-08T23:34:53.662Z,5.08
2019-03-08T23:37:23.208Z,5.37
2019-03-08T23:39:52.838Z,3.80
2019-03-08T23:42:22.627Z,5.10
2019-03-08T23:44:52.201Z,4.47
2019-03-08T23:47:21.702Z,5.55
2019-03-08T23:49:51.544Z,5.87
2019-03-08T23:52:21.098Z,3.67
2019-03-08T23:54:50.593Z,5.08
2019-03-08T23:57:20.116Z,4.15
2019-03-08T23:59:49.607Z,4.22
